Historyczne dane pomiarowe

Dodano dane terminowe – wersja testowa.

Dane z okresu 1951-2019

Wersja bazy: 1.34 [2019-03-16, lista zmian], aktualizacja planowana na 2019-04-15

Dane meteo z obszaru Polski uzyskane na podstawie danych udostępnionych przez Instytut Meteorologii i Gospodarki Wodnej – Państwowy Instytut Badawczy.

 

Wybierz Datę:    

       

TemperaturaWilgotnośćZachmurzenieWiatrCiśnienieWidzialnośćZjawiska
 Data    tng td wb rh cc ccl cl cm ch dir g1 g2 mslp ppp      
1999-07-20 00:00:00 15.9--- 14.4 15.091wxwx3wx--1015.7 993.7 0.0---wx
1999-07-20 01:00:00 15.0--- 13.8 14.393wxwx2wx--1015.8 993.7----wx
1999-07-20 02:00:00 14.0--- 13.0 13.494wxwx2wx--1015.6 993.4----wx
1999-07-20 03:00:00 13.9--- 12.2 12.989wxwx2wx--1015.5 993.3----wx
1999-07-20 04:00:00 15.6--- 13.6 14.488wxwx2wx--1015.5 993.4----wx
1999-07-20 05:00:00 18.0--- 14.1 15.678wxwx2wx--1015.0 993.1----wx
1999-07-20 06:00:00 19.8--- 14.5 16.571wxwx2wx--1014.8 993.1 0.0---wx
1999-07-20 07:00:00 21.8--- 12.2 16.054wxwx1wx--1014.9 993.3----wx
1999-07-20 08:00:00 22.8--- 13.4 17.055wxwx2wx--1014.8 993.3----wx
1999-07-20 09:00:00 24.2--- 12.8 17.249wxwx2wx--1014.7 993.3----wx
1999-07-20 10:00:00 24.3--- 12.9 17.349wxwxwx2wx--1014.4 993.0----wx
1999-07-20 11:00:00 24.6--- 11.7 16.844wxwxwx1wx--1014.1 992.7----wx
1999-07-20 12:00:00 25.5--- 11.8 17.243wxwxwx2wx--1013.5 992.2 0.0---wx
1999-07-20 13:00:00 25.8--- 12.9 17.845wxwx3wx--1013.2 991.9----wx
1999-07-20 14:00:00 26.1--- 13.1 18.044wxwx2wx--1012.8 991.6----wx
1999-07-20 15:00:00 26.8--- 13.8 18.645wxwx3wx--1012.6 991.4----wx
1999-07-20 16:00:00 26.4--- 12.8 18.043wxwx2wx--1012.1 990.9----wx
1999-07-20 17:00:00 26.0--- 13.1 18.045wxwx1wx--1011.9 990.7----wx
1999-07-20 18:00:00 24.6--- 13.7 17.851wxwx0wx--1011.8 990.5 0.0---wx
1999-07-20 19:00:00 19.8--- 14.3 16.471wxwx0wx--1012.2 990.5----wx
1999-07-20 20:00:00 17.2--- 14.4 15.584wxwx0wx--1012.4 990.5----wx
1999-07-20 21:00:00 15.4--- 12.7 13.884wxwx0wx--1012.4 990.4----wx
1999-07-20 22:00:00 14.0--- 12.3 13.089wxwx0wx--1012.2 990.1----wx
1999-07-20 23:00:00 13.6--- 11.9 12.689wxwx0wx--1011.9 989.8----wx

 

Źródłem pochodzenia danych jest Instytut Meteorologii i Gospodarki Wodnej – Państwowy Instytut Badawczy. Dane Instytutu Meteorologii i Gospodarki Wodnej – Państwowego Instytutu Badawczego zostały przetworzone.

Dane źródłowe można odnaleźć na stronie https://dane.imgw.pl